Главная страница
METAR-TAF:

METAR-TAF

Аэропорты :

Агаджари, Иран

широта: 30-46N, долгота: 049-40E, высота над уровнем моря: 29 м

Текущие метеонаблюдения

Эта сводка был подготовлена 9 часа и 32 минут назад, в 17:00 UTC
Ветер 4 Узел от юго-восточный
Температура 24°C
Влажность 65%
Давление 1016 hPa
Видимость: 7000 м

METAR: OIAG 261700Z 14004KT 7000 NSC 24/17 Q1016

Время: 06:02 (02:32 UTC)


TAF: отсутствует

Метеонаблюдения и прогнозы для более 4000 аэропортов (сводки METAR и TAF).

Имеющиеся станции представлены на карте желтыми и красными точками.

Чтобы увидеть название станции, наведите на нее мышь.

Затем щелкните, чтобы увидеть метеонаблюдения и метеопрогнозы.

Управление картой: чтобы увеличить масштаб, щелкните зеленые кнопки с черным крестиком; чтобы уменьшить масштаб, щелкните зеленую кнопку с тире; для просмотра соседних карт щелкайте зеленые стрелки.


METAR-TAF: